Observations for LAKENHEATH RAF, United Kingdom (EGUL)

EGUL 201556Z 24019G24KT 9999 FEW041 SCT060 25/15 A3002 RMK AO2A SLP169 T02460147 $  
EGUL 201524Z 27015KT 9999 FEW040 SCT055 25/15 A3002 RMK SLP169 $
EGUL 201456Z AUTO 26016G23KT 9999 FEW037 SCT050 24/15 A3003 RMK AO2 DZB1356E20DZB43E49 SLP172 P0000 60000 T02410150 55005 $ 
EGUL 201443Z AUTO 26018G25KT 9999 -DZ FEW037 SCT050 24/15 A3003 RMK AO2 DZB1356E20DZB43 SLP172 $
EGUL 201409Z AUTO 26016G23KT 9999 -DZ FEW037 SCT060 25/15 A3003 RMK AO2 DZB1356SLP172 $
EGUL 201420Z AUTO 25016G23KT 9999 FEW038 SCT060 24/15 A3003 RMK AO2 DZB1356E20 SLP172 $
EGUL 201449Z AUTO 25019G25KT 9999 FEW037 SCT050 25/15 A3003 RMK AO2 DZB1356E20DZB43E49 SLP172 $
EGUL 201457Z AUTO 26018G23KT 9999 -DZ FEW037 FEW050 24/15 A3003 RMK AO2 DZB57 SLP172 $
EGUL 201356Z COR AUTO 25017KT 9999 FEW037 SCT047 25/15 A3002 RMK AO2A SLP169 T02450151 $ COR 1409   
EGUL 201346Z AUTO 27018G23KT 9999 -DZ SCT038 BKN049 24/15 A3003 RMK AO2 DZB46 SLP172 $
EGUL 201256Z AUTO 24019KT 9999 SCT038 BKN050 24/15 A3003 RMK AO2 SLP172 T02430149 $ 
EGUL 201156Z AUTO 24016G22KT 9999 BKN033 23/15 A3004 RMK AO2 SLP175 T02320150 10242 20172 57010 $   
EGUL 201056Z AUTO 23016G23KT 9999 FEW027 23/15 A3005 RMK AO2 SLP179 T02310146 $ 
EGUL 201044Z AUTO 23017G24KT 9999 SCT026 23/15 A3005 RMK AO2 SLP179 $
EGUL 201000Z AUTO 22018KT 9999 SCT025 21/15 A3006 RMK AO2 SLP182 $
EGUL 201001Z AUTO 22016KT 9999 BKN025 21/15 A3006 RMK AO2 BKN V SCT CIG 024 RWY06 SLP182 $
EGUL 200956Z 22018G22KT 9999 BKN024 21/15 A3006 RMK AO2A SLP182 T02140148 $ 
EGUL 200921Z AUTO 23018G23KT 9999 BKN020 21/15 A3007 RMK AO2 SLP186 $
EGUL 200856Z AUTO 22014KT 9999 OVC018 21/15 A3007 RMK AO2 SLP186 T02050148 57007 $  
EGUL 200756Z AUTO 22013KT 9999 OVC015 19/15 A3008 RMK AO2 SLP189 T01890148 $
EGUL 200737Z AUTO 22014KT 9999 OVC015 19/15 A3008 RMK AO2 SLP189 $
EGUL 200709Z AUTO 21013KT 9999 SCT014 OVC020 18/15 A3009 RMK AO2 SLP192 $
EGUL 200711Z AUTO 22012KT 9999 BKN014 OVC020 18/15 A3009 RMK AO2 CIG 014V020 BKN V SCT SLP192 $
EGUL 200712Z AUTO 23012KT 9999 OVC017 18/15 A3009 RMK AO2 CIG 014V020 CIG 014 RWY06 SLP192 $
EGUL 200718Z AUTO 22013KT 9999 BKN014 OVC020 18/15 A3008 RMK AO2 CIG 014V020 BKN V SCT SLP189 $
EGUL 200656Z AUTO 22014KT 9999 OVC019 18/15 A3009 RMK AO2 SLP192 T01800149 $
EGUL 200556Z AUTO 24009KT 9999 SCT012 BKN017 17/15 A3009 RMK AO2 CIG 016 RWY06 SLP192 T01720150 10178 20154 55002 $ 
EGUL 200528Z AUTO 21006KT 9999 BKN020 17/15 A3009 RMK AO2 BKN V FEW SLP192 $
EGUL 200548Z AUTO 24009KT 9999 SCT012 OVC019 17/15 A3009 RMK AO2 CIG 018 RWY06 SLP192 $
EGUL 200456Z AUTO 19004KT 9999 CLR 16/14 A3009 RMK AO2 SLP192 T01610143 $   
EGUL 200356Z AUTO 20004KT 9999 CLR 15/14 A3010 RMK AO2 SLP196 T01540138 $   
EGUL 200256Z AUTO 21007KT 9999 CLR 16/14 A3010 RMK AO2 SLP196 T01630143 57008 $ 
EGUL 200158Z 21007KT 9999 CLR 16/14 A3010 RMK SLP196 T01640142 57009 $  
EGUL 192356Z AUTO 21008KT 9999 CLR 18/15 A3013 RMK AO2 SLP206 T01770148 10231 20177 402520169 57004 $   
EGUL 192256Z AUTO 22007KT 9999 CLR 18/15 A3013 RMK AO2 SLP206 T01840147 $   
EGUL 192156Z AUTO 22008KT 9999 CLR 20/15 A3014 RMK AO2 SLP209 T01960150 $   
EGUL 192056Z AUTO 24009KT 9999 SCT050 20/16 A3014 RMK AO2 SLP209 T02040158 53004 $  
EGUL 191956Z AUTO 24010KT 9999 SCT060 22/16 A3012 RMK AO2 SLP203 T02180156 $
EGUL 191856Z AUTO 24014KT 9999 OVC055 23/16 A3012 RMK AO2 SLP203 T02280156 $
EGUL 191756Z AUTO 24011KT 9999 FEW034 OVC050 23/15 A3013 RMK AO2 SLP206 T02310154 10252 20219 55004 $   
EGUL 191656Z AUTO 23015KT 9999 SCT035 SCT055 24/15 A3012 RMK AO2 SLP203 T02440153 $ 
EGUL 191556Z AUTO 22014KT 9999 FEW043 BKN060 24/15 A3013 RMK AO2 SLP206 T02440150 $